Time,TemperatureF,DewpointF,PressureIn,WindDirection,WindDirectionDegrees,WindSpeedMPH,WindSpeedGustMPH,Humidity,HourlyPrecipIn,Conditions,Clouds,dailyrainin,SoftwareType,DateUTC
2013-04-29 00:03:00,55.0,47.0,30.16,South,185,4.0,10.0,73,0.00,,,0.00,,2013-04-29 04:03:00,
2013-04-29 00:13:00,55.0,47.0,30.16,South,185,4.0,10.0,73,0.00,,,0.00,,2013-04-29 04:13:00,
2013-04-29 00:23:00,55.0,47.0,30.16,South,173,5.0,12.0,73,0.00,,,0.00,,2013-04-29 04:23:00,
2013-04-29 00:33:00,55.0,47.0,30.16,SE,141,5.0,10.0,74,0.00,,,0.00,,2013-04-29 04:33:00,
2013-04-29 00:43:00,55.0,47.0,30.16,SE,141,5.0,10.0,74,0.00,,,0.00,,2013-04-29 04:43:00,
2013-04-29 00:52:00,55.0,47.0,30.16,SSW,205,3.0,10.0,74,0.00,,,0.00,,2013-04-29 04:52:00,
2013-04-29 01:02:00,55.0,47.0,30.16,SSW,207,4.0,11.0,75,0.00,,,0.00,,2013-04-29 05:02:00,
2013-04-29 01:12:00,55.0,47.0,30.16,SSW,207,4.0,11.0,75,0.00,,,0.00,,2013-04-29 05:12:00,
2013-04-29 01:22:00,55.0,47.0,30.16,South,184,4.0,12.0,75,0.00,,,0.00,,2013-04-29 05:22:00,
2013-04-29 01:32:00,55.0,47.0,30.15,SSE,153,4.0,12.0,75,0.00,,,0.00,,2013-04-29 05:32:00,
2013-04-29 01:42:00,55.0,47.0,30.15,SSE,153,4.0,12.0,75,0.00,,,0.00,,2013-04-29 05:42:00,
2013-04-29 01:52:00,54.0,47.0,30.15,South,173,5.0,11.0,76,0.00,,,0.00,,2013-04-29 05:52:00,
2013-04-29 02:02:00,54.0,47.0,30.14,SE,134,4.0,13.0,77,0.00,,,0.00,,2013-04-29 06:02:00,
2013-04-29 02:12:00,54.0,47.0,30.14,SE,134,4.0,13.0,77,0.00,,,0.00,,2013-04-29 06:12:00,
2013-04-29 02:22:00,54.0,47.0,30.14,South,175,3.0,8.0,77,0.00,,,0.00,,2013-04-29 06:22:00,
2013-04-29 02:32:00,54.0,46.0,30.14,SSW,194,6.0,13.0,75,0.00,,,0.00,,2013-04-29 06:32:00,
2013-04-29 02:42:00,54.0,46.0,30.14,SSW,194,6.0,13.0,75,0.00,,,0.00,,2013-04-29 06:42:00,
2013-04-29 02:52:00,54.0,47.0,30.14,South,182,3.0,9.0,76,0.00,,,0.00,,2013-04-29 06:52:00,
2013-04-29 03:02:00,54.0,48.0,30.13,SE,144,2.0,9.0,79,0.00,,,0.00,,2013-04-29 07:02:00,
2013-04-29 03:11:00,54.0,48.0,30.13,SE,144,2.0,9.0,79,0.00,,,0.00,,2013-04-29 07:11:00,
2013-04-29 03:21:00,54.0,48.0,30.13,SSE,155,2.0,9.0,79,0.00,,,0.00,,2013-04-29 07:21:00,
2013-04-29 03:32:00,54.0,48.0,30.13,South,187,2.0,7.0,79,0.00,,,0.00,,2013-04-29 07:32:00,
2013-04-29 03:42:00,54.0,48.0,30.13,South,187,2.0,7.0,79,0.00,,,0.00,,2013-04-29 07:42:00,
2013-04-29 03:52:00,54.0,47.0,30.13,SSE,163,4.0,9.0,78,0.00,,,0.00,,2013-04-29 07:52:00,
2013-04-29 04:03:00,54.0,47.0,30.13,South,184,4.0,10.0,76,0.00,,,0.00,,2013-04-29 08:03:00,
2013-04-29 04:11:00,54.0,47.0,30.13,South,184,4.0,10.0,76,0.00,,,0.00,,2013-04-29 08:11:00,
2013-04-29 04:21:00,54.0,47.0,30.13,South,173,5.0,9.0,76,0.00,,,0.00,,2013-04-29 08:21:00,
2013-04-29 04:32:00,54.0,47.0,30.13,South,169,3.0,9.0,78,0.00,,,0.00,,2013-04-29 08:32:00,
2013-04-29 04:42:00,54.0,47.0,30.13,South,169,3.0,9.0,78,0.00,,,0.00,,2013-04-29 08:42:00,
2013-04-29 04:51:00,53.0,47.0,30.13,SSE,167,2.0,8.0,79,0.00,,,0.00,,2013-04-29 08:51:00,
2013-04-29 05:01:00,53.0,47.0,30.13,SSE,161,0.0,2.0,81,0.00,,,0.00,,2013-04-29 09:01:00,
2013-04-29 05:12:00,53.0,47.0,30.13,SSE,161,0.0,2.0,81,0.00,,,0.00,,2013-04-29 09:12:00,
2013-04-29 05:21:00,53.0,45.0,30.13,South,184,6.0,10.0,74,0.01,,,0.01,,2013-04-29 09:21:00,
2013-04-29 05:33:00,53.0,45.0,30.12,SSE,165,4.0,10.0,75,0.03,,,0.03,,2013-04-29 09:33:00,
2013-04-29 05:42:00,53.0,45.0,30.12,SSE,165,4.0,10.0,75,0.03,,,0.03,,2013-04-29 09:42:00,
2013-04-29 05:53:00,53.0,46.0,30.12,ESE,115,4.0,8.0,77,0.04,,,0.04,,2013-04-29 09:53:00,
2013-04-29 06:02:00,53.0,47.0,30.13,SE,138,6.0,13.0,80,0.06,,,0.06,,2013-04-29 10:02:00,
2013-04-29 06:12:00,53.0,47.0,30.13,SE,138,6.0,13.0,80,0.06,,,0.06,,2013-04-29 10:12:00,
2013-04-29 06:23:00,53.0,47.0,30.13,SSE,157,5.0,17.0,79,0.05,,,0.06,,2013-04-29 10:23:00,
2013-04-29 06:32:00,52.0,46.0,30.13,ESE,104,3.0,9.0,81,0.03,,,0.06,,2013-04-29 10:32:00,
2013-04-29 06:42:00,52.0,46.0,30.13,ESE,104,3.0,9.0,81,0.03,,,0.06,,2013-04-29 10:42:00,
2013-04-29 06:52:00,52.0,46.0,30.13,ESE,115,5.0,11.0,81,0.02,,,0.07,,2013-04-29 10:52:00,
2013-04-29 07:03:00,52.0,46.0,30.14,SSE,148,6.0,15.0,80,0.01,,,0.07,,2013-04-29 11:03:00,
2013-04-29 07:12:00,52.0,46.0,30.14,SSE,148,6.0,15.0,80,0.01,,,0.07,,2013-04-29 11:12:00,
2013-04-29 07:22:00,52.0,47.0,30.14,ESE,104,4.0,12.0,82,0.01,,,0.07,,2013-04-29 11:22:00,
2013-04-29 07:32:00,52.0,47.0,30.15,SE,140,3.0,10.0,83,0.03,,,0.09,,2013-04-29 11:32:00,
2013-04-29 07:42:00,52.0,47.0,30.15,SE,140,3.0,10.0,83,0.03,,,0.09,,2013-04-29 11:42:00,
2013-04-29 07:52:00,52.0,48.0,30.15,SE,126,4.0,11.0,85,0.02,,,0.09,,2013-04-29 11:52:00,
2013-04-29 08:01:00,52.0,48.0,30.16,South,173,5.0,10.0,86,0.03,,,0.10,,2013-04-29 12:01:00,
2013-04-29 08:12:00,52.0,48.0,30.16,South,173,5.0,10.0,86,0.03,,,0.10,,2013-04-29 12:12:00,
2013-04-29 08:22:00,52.0,48.0,30.16,SE,145,5.0,11.0,86,0.02,,,0.10,,2013-04-29 12:22:00,
2013-04-29 08:32:00,52.0,47.0,30.16,South,173,4.0,9.0,84,0.01,,,0.10,,2013-04-29 12:32:00,
2013-04-29 08:42:00,52.0,47.0,30.16,South,173,4.0,9.0,84,0.01,,,0.10,,2013-04-29 12:42:00,
2013-04-29 08:52:00,52.0,48.0,30.16,SSE,164,4.0,10.0,85,0.01,,,0.10,,2013-04-29 12:52:00,
2013-04-29 09:01:00,52.0,48.0,30.16,East,92,5.0,9.0,86,0.00,,,0.10,,2013-04-29 13:01:00,
2013-04-29 09:11:00,52.0,48.0,30.16,East,92,5.0,9.0,86,0.00,,,0.10,,2013-04-29 13:11:00,
2013-04-29 09:21:00,52.0,48.0,30.16,SE,124,4.0,9.0,86,0.00,,,0.10,,2013-04-29 13:21:00,
2013-04-29 09:32:00,52.0,48.0,30.15,SE,128,3.0,10.0,86,0.01,,,0.11,,2013-04-29 13:32:00,
2013-04-29 09:42:00,52.0,48.0,30.15,SE,128,3.0,10.0,86,0.01,,,0.11,,2013-04-29 13:42:00,
2013-04-29 09:52:00,52.0,48.0,30.15,East,101,2.0,8.0,87,0.01,,,0.11,,2013-04-29 13:52:00,
2013-04-29 10:02:00,52.0,49.0,30.15,East,96,1.0,6.0,88,0.02,,,0.12,,2013-04-29 14:02:00,
2013-04-29 10:11:00,52.0,49.0,30.15,East,96,1.0,6.0,88,0.02,,,0.12,,2013-04-29 14:11:00,
2013-04-29 10:21:00,52.0,49.0,30.15,East,94,0.0,7.0,89,0.02,,,0.12,,2013-04-29 14:21:00,
2013-04-29 10:32:00,52.0,49.0,30.15,East,92,1.0,8.0,90,0.02,,,0.13,,2013-04-29 14:32:00,
2013-04-29 10:42:00,52.0,49.0,30.15,East,92,1.0,8.0,90,0.02,,,0.13,,2013-04-29 14:42:00,
2013-04-29 10:52:00,52.0,49.0,30.15,East,91,1.0,8.0,91,0.03,,,0.14,,2013-04-29 14:52:00,
2013-04-29 11:01:00,52.0,49.0,30.14,ESE,108,3.0,8.0,91,0.02,,,0.14,,2013-04-29 15:01:00,
2013-04-29 11:12:00,52.0,49.0,30.14,ESE,108,3.0,8.0,91,0.02,,,0.14,,2013-04-29 15:12:00,
2013-04-29 11:21:00,52.0,49.0,30.14,East,98,2.0,7.0,91,0.03,,,0.15,,2013-04-29 15:21:00,
2013-04-29 11:33:00,53.0,50.0,30.14,East,99,2.0,11.0,91,0.02,,,0.15,,2013-04-29 15:33:00,
2013-04-29 11:42:00,53.0,50.0,30.14,East,99,2.0,11.0,91,0.02,,,0.15,,2013-04-29 15:42:00,
2013-04-29 11:53:00,53.0,50.0,30.14,SE,140,3.0,12.0,91,0.02,,,0.16,,2013-04-29 15:53:00,
2013-04-29 12:03:00,52.0,49.0,30.14,SSE,153,5.0,11.0,91,0.03,,,0.17,,2013-04-29 16:03:00,
2013-04-29 12:12:00,52.0,49.0,30.14,SSE,153,5.0,11.0,91,0.03,,,0.17,,2013-04-29 16:12:00,
2013-04-29 12:23:00,53.0,51.0,30.14,ESE,111,4.0,13.0,92,0.03,,,0.18,,2013-04-29 16:23:00,
2013-04-29 12:33:00,52.0,50.0,30.14,ESE,122,4.0,10.0,92,0.03,,,0.18,,2013-04-29 16:33:00,
2013-04-29 12:42:00,52.0,50.0,30.14,ESE,122,4.0,10.0,92,0.03,,,0.18,,2013-04-29 16:42:00,
2013-04-29 12:52:00,53.0,51.0,30.14,ESE,117,3.0,9.0,92,0.02,,,0.18,,2013-04-29 16:52:00,
2013-04-29 13:02:00,52.0,50.0,30.13,SSE,162,4.0,10.0,92,0.01,,,0.19,,2013-04-29 17:02:00,
2013-04-29 13:12:00,52.0,50.0,30.13,SSE,162,4.0,10.0,92,0.01,,,0.19,,2013-04-29 17:12:00,
2013-04-29 13:22:00,52.0,50.0,30.13,SE,133,2.0,10.0,92,0.01,,,0.19,,2013-04-29 17:22:00,
2013-04-29 13:32:00,52.0,50.0,30.13,ESE,107,4.0,12.0,92,0.01,,,0.19,,2013-04-29 17:32:00,
2013-04-29 13:42:00,52.0,50.0,30.13,ESE,107,4.0,12.0,92,0.01,,,0.19,,2013-04-29 17:42:00,
2013-04-29 13:52:00,53.0,51.0,30.13,SSE,158,3.0,8.0,92,0.02,,,0.20,,2013-04-29 17:52:00,
2013-04-29 14:01:00,53.0,51.0,30.13,SE,146,1.0,9.0,92,0.01,,,0.20,,2013-04-29 18:01:00,
2013-04-29 14:13:00,53.0,51.0,30.13,SE,146,1.0,9.0,92,0.01,,,0.20,,2013-04-29 18:13:00,
2013-04-29 14:22:00,53.0,50.0,30.13,ESE,103,2.0,8.0,91,0.01,,,0.20,,2013-04-29 18:22:00,
2013-04-29 14:32:00,53.0,50.0,30.12,East,100,0.0,7.0,91,0.01,,,0.20,,2013-04-29 18:32:00,
2013-04-29 14:42:00,53.0,50.0,30.12,East,100,0.0,7.0,91,0.01,,,0.20,,2013-04-29 18:42:00,
2013-04-29 14:52:00,53.0,50.0,30.12,East,101,2.0,7.0,91,0.00,,,0.20,,2013-04-29 18:52:00,
2013-04-29 15:01:00,53.0,50.0,30.13,ESE,107,2.0,9.0,91,0.00,,,0.20,,2013-04-29 19:01:00,
2013-04-29 15:11:00,53.0,50.0,30.13,ESE,107,2.0,9.0,91,0.00,,,0.20,,2013-04-29 19:11:00,
2013-04-29 15:22:00,53.0,50.0,30.13,East,98,1.0,8.0,91,0.00,,,0.20,,2013-04-29 19:22:00,
2013-04-29 15:32:00,54.0,51.0,30.11,ESE,104,2.0,7.0,90,0.00,,,0.20,,2013-04-29 19:32:00,
2013-04-29 15:42:00,54.0,51.0,30.11,ESE,104,2.0,7.0,90,0.00,,,0.20,,2013-04-29 19:42:00,
2013-04-29 15:52:00,53.0,50.0,30.11,East,82,2.0,7.0,89,0.00,,,0.20,,2013-04-29 19:52:00,
2013-04-29 16:02:00,53.0,50.0,30.10,ESE,103,2.0,8.0,89,0.00,,,0.20,,2013-04-29 20:02:00,
2013-04-29 16:12:00,53.0,50.0,30.10,ESE,103,2.0,8.0,89,0.00,,,0.20,,2013-04-29 20:12:00,
2013-04-29 16:22:00,53.0,50.0,30.10,East,92,0.0,6.0,88,0.00,,,0.20,,2013-04-29 20:22:00,
2013-04-29 16:32:00,54.0,50.0,30.10,ESE,108,2.0,7.0,86,0.00,,,0.20,,2013-04-29 20:32:00,
2013-04-29 16:42:00,54.0,50.0,30.10,ESE,108,2.0,7.0,86,0.00,,,0.20,,2013-04-29 20:42:00,
2013-04-29 16:52:00,54.0,50.0,30.10,ESE,103,1.0,9.0,85,0.00,,,0.20,,2013-04-29 20:52:00,
2013-04-29 17:02:00,54.0,49.0,30.10,SE,130,1.0,9.0,84,0.00,,,0.20,,2013-04-29 21:02:00,
2013-04-29 17:11:00,54.0,49.0,30.10,SE,130,1.0,9.0,84,0.00,,,0.20,,2013-04-29 21:11:00,
2013-04-29 17:22:00,54.0,49.0,30.10,ESE,109,1.0,8.0,84,0.00,,,0.20,,2013-04-29 21:22:00,
2013-04-29 17:33:00,54.0,49.0,30.10,ESE,109,1.0,8.0,84,0.00,,,0.20,,2013-04-29 21:33:00,
2013-04-29 17:43:00,54.0,49.0,30.10,ESE,109,1.0,8.0,84,0.00,,,0.20,,2013-04-29 21:43:00,
2013-04-29 17:53:00,54.0,49.0,30.10,ESE,111,0.0,5.0,84,0.00,,,0.20,,2013-04-29 21:53:00,
2013-04-29 18:02:00,53.0,49.0,30.10,ESE,119,0.0,4.0,85,0.00,,,0.20,,2013-04-29 22:02:00,
2013-04-29 18:13:00,53.0,49.0,30.10,ESE,119,0.0,4.0,85,0.00,,,0.20,,2013-04-29 22:13:00,
2013-04-29 18:23:00,53.0,49.0,30.10,ESE,118,0.0,7.0,85,0.00,,,0.20,,2013-04-29 22:23:00,
2013-04-29 18:32:00,53.0,49.0,30.11,SE,124,0.0,4.0,85,0.00,,,0.20,,2013-04-29 22:32:00,
2013-04-29 18:42:00,53.0,49.0,30.11,SE,124,0.0,4.0,85,0.00,,,0.20,,2013-04-29 22:42:00,
2013-04-29 18:52:00,53.0,49.0,30.11,SE,125,0.0,2.0,86,0.01,,,0.21,,2013-04-29 22:52:00,
2013-04-29 19:02:00,53.0,49.0,30.10,SE,124,0.0,2.0,86,0.01,,,0.21,,2013-04-29 23:02:00,
2013-04-29 19:12:00,53.0,49.0,30.10,SE,124,0.0,2.0,86,0.01,,,0.21,,2013-04-29 23:12:00,
2013-04-29 19:22:00,53.0,49.0,30.10,SE,124,0.0,0.0,86,0.01,,,0.21,,2013-04-29 23:22:00,
2013-04-29 19:32:00,53.0,49.0,30.11,ESE,123,0.0,0.0,86,0.01,,,0.21,,2013-04-29 23:32:00,
2013-04-29 19:42:00,53.0,49.0,30.11,ESE,123,0.0,0.0,86,0.01,,,0.21,,2013-04-29 23:42:00,
2013-04-29 19:52:00,53.0,49.0,30.11,ESE,118,0.0,1.0,86,0.00,,,0.21,,2013-04-29 23:52:00,
2013-04-29 20:01:00,53.0,49.0,30.11,ESE,109,0.0,2.0,86,0.00,,,0.21,,2013-04-30 00:01:00,
2013-04-29 20:11:00,53.0,49.0,30.11,ESE,109,0.0,2.0,86,0.00,,,0.21,,2013-04-30 00:11:00,
2013-04-29 20:21:00,53.0,49.0,30.11,ESE,107,0.0,3.0,87,0.00,,,0.21,,2013-04-30 00:21:00,
2013-04-29 20:32:00,52.0,49.0,30.12,East,98,0.0,6.0,88,0.00,,,0.21,,2013-04-30 00:32:00,
2013-04-29 20:42:00,52.0,49.0,30.12,East,98,0.0,6.0,88,0.00,,,0.21,,2013-04-30 00:42:00,
2013-04-29 20:51:00,52.0,49.0,30.12,East,101,0.0,5.0,88,0.00,,,0.21,,2013-04-30 00:51:00,
2013-04-29 21:02:00,52.0,49.0,30.13,East,82,0.0,5.0,89,0.00,,,0.21,,2013-04-30 01:02:00,
2013-04-29 21:11:00,52.0,49.0,30.13,East,82,0.0,5.0,89,0.00,,,0.21,,2013-04-30 01:11:00,
2013-04-29 21:22:00,51.0,48.0,30.13,East,83,0.0,1.0,90,0.00,,,0.21,,2013-04-30 01:22:00,
2013-04-29 21:32:00,51.0,48.0,30.14,East,82,0.0,3.0,90,0.00,,,0.21,,2013-04-30 01:32:00,
2013-04-29 21:41:00,51.0,48.0,30.14,East,82,0.0,3.0,90,0.00,,,0.21,,2013-04-30 01:41:00,
2013-04-29 21:51:00,52.0,49.0,30.14,East,81,0.0,0.0,90,0.00,,,0.21,,2013-04-30 01:51:00,
2013-04-29 22:01:00,52.0,49.0,30.14,East,82,0.0,3.0,91,0.00,,,0.21,,2013-04-30 02:01:00,
2013-04-29 22:11:00,52.0,49.0,30.14,East,82,0.0,3.0,91,0.00,,,0.21,,2013-04-30 02:11:00,
2013-04-29 22:21:00,52.0,49.0,30.14,ESE,111,2.0,8.0,91,0.00,,,0.21,,2013-04-30 02:21:00,
2013-04-29 22:31:00,52.0,49.0,30.14,ESE,102,2.0,7.0,91,0.00,,,0.21,,2013-04-30 02:31:00,
2013-04-29 22:41:00,52.0,49.0,30.14,ESE,102,2.0,7.0,91,0.00,,,0.21,,2013-04-30 02:41:00,
2013-04-29 22:51:00,52.0,49.0,30.14,SE,140,0.0,6.0,91,0.00,,,0.21,,2013-04-30 02:51:00,
2013-04-29 23:01:00,51.0,49.0,30.14,SE,142,2.0,5.0,92,0.00,,,0.21,,2013-04-30 03:01:00,
2013-04-29 23:11:00,51.0,49.0,30.14,SE,142,2.0,5.0,92,0.00,,,0.21,,2013-04-30 03:11:00,
2013-04-29 23:21:00,51.0,49.0,30.14,SE,141,0.0,7.0,92,0.00,,,0.21,,2013-04-30 03:21:00,
2013-04-29 23:33:00,51.0,49.0,30.14,SE,130,2.0,7.0,92,0.00,,,0.21,,2013-04-30 03:33:00,
2013-04-29 23:43:00,51.0,49.0,30.14,SE,130,2.0,7.0,92,0.00,,,0.21,,2013-04-30 03:43:00,
2013-04-29 23:52:00,51.0,49.0,30.14,SE,131,1.0,5.0,92,0.00,,,0.21,,2013-04-30 03:52:00,